Latest Weather Observations for Strathalbyn

IDS60801

Issued at 4:02 pm CDT Friday 6 March 2015 (issued every 30 minutes, with the page automatically refreshed every 10 minutes)

About weather observations | Map of weather stations | Latest weather observations for SA | Other Formats
Station Details ID: 024580 Name: STRATHALBYN RACECOURSE Lat: -35.28 Lon: 138.89 Height: 58.0 m
Data from the previous 72 hours. | See also: Recent months at Strathalbyn
Date/Time
CDT
Temp
°C
App
Temp
°C
Dew
Point
Rel
Hum
%
Delta-T
°C
Wind Press
QNH
hPa
Press
MSL
hPa
Rain
since 9 am
mm
Dir
 
Spd
km/h
Gust
km/h
Spd
kts
Gust
kts
06/04:00pm 20.9 14.7 9.2 47 6.2 S 32 46 17 25 1015.5 - 0.0
06/03:30pm 21.1 14.6 9.0 46 6.4 S 33 43 18 23 1015.9 - 0.0
06/03:00pm 22.2 15.9 9.7 45 6.8 S 33 44 18 24 1016.2 1016.1 0.0
06/02:30pm 21.6 16.3 9.8 47 6.4 SSW 28 41 15 22 1016.7 - 0.0
06/02:00pm 22.3 16.6 9.8 45 6.8 SSW 30 46 16 25 1016.8 - 0.0
06/01:30pm 21.0 15.7 9.9 49 6.0 SSW 28 37 15 20 1017.3 - 0.0
06/01:00pm 20.9 15.6 9.8 49 6.0 SSW 28 39 15 21 1017.7 - 0.0
06/12:30pm 21.1 15.7 9.4 47 6.3 SSW 28 39 15 21 1018.1 - 0.0
06/12:00pm 20.8 15.5 10.0 50 5.8 S 28 39 15 21 1018.5 1018.4 0.0
06/11:30am 19.8 14.8 9.4 51 5.5 SSW 26 37 14 20 1018.7 - 0.0
06/11:00am 19.3 13.5 9.5 53 5.2 SSW 30 39 16 21 1019.0 - 0.0
06/10:30am 18.4 13.1 10.0 58 4.5 SSW 28 39 15 21 1018.9 - 0.0
06/10:00am 17.9 14.1 9.8 59 4.3 SW 20 32 11 17 1018.9 - 0.0
06/09:30am 17.9 13.8 10.0 60 4.2 SW 22 30 12 16 1018.6 - 0.0
06/09:00am 17.0 14.3 10.4 65 3.5 WSW 15 24 8 13 1018.9 1018.8 0.0
06/08:30am 16.2 13.0 9.8 66 3.4 W 17 24 9 13 1018.8 - 0.0
06/08:00am 15.8 12.9 9.5 66 3.3 W 15 22 8 12 1018.6 - 0.0
06/07:30am 15.5 11.8 9.4 67 3.2 W 19 28 10 15 1018.5 - 0.0
06/07:00am 15.4 11.6 9.1 66 3.2 WSW 19 28 10 15 1018.5 - 0.0
06/06:30am 15.2 11.2 8.9 66 3.2 W 20 30 11 16 1018.4 - 0.0
06/06:00am 14.8 10.9 8.5 66 3.2 W 19 28 10 15 1018.5 1018.4 0.0
06/05:30am 14.2 11.4 8.4 68 2.9 W 13 20 7 11 1018.4 - 0.0
06/05:00am 13.8 10.1 8.0 68 2.9 W 17 24 9 13 1018.4 - 0.0
06/04:30am 13.3 10.0 8.0 70 2.6 WNW 15 20 8 11 1018.3 - 0.0
06/04:00am 13.1 9.7 7.8 70 2.6 W 15 22 8 12 1018.4 - 0.0
06/03:30am 13.2 9.8 7.6 69 2.7 W 15 20 8 11 1018.5 - 0.0
06/03:00am 13.3 9.9 7.5 68 2.8 W 15 20 8 11 1018.9 1018.8 0.0
06/02:30am 13.6 9.8 7.6 67 3.0 W 17 22 9 12 1019.2 - 0.0
06/02:00am 14.2 10.8 7.7 65 3.2 W 15 20 8 11 1019.7 - 0.0
06/01:30am 14.3 10.6 7.8 65 3.2 W 17 22 9 12 1020.4 - 0.0
06/01:00am 14.0 11.0 7.5 65 3.2 W 13 19 7 10 1021.0 - 0.0
06/12:30am 13.2 10.1 7.4 68 2.8 W 13 15 7 8 1021.2 - 0.0
06/12:00am 13.2 10.0 7.0 66 3.0 W 13 20 7 11 1021.3 1021.1 0.0
 
Date/Time
CDT
Temp
°C
App
Temp
°C
Dew
Point
Rel
Hum
%
Delta-T
°C
Wind Press
QNH
hPa
Press
MSL
hPa
Rain
since 9 am
mm
Dir
 
Spd
km/h
Gust
km/h
Spd
kts
Gust
kts
05/11:30pm 13.7 10.2 7.2 65 3.2 WSW 15 20 8 11 1021.7 - 0.0
05/11:00pm 13.7 10.5 7.0 64 3.3 WSW 13 17 7 9 1021.7 - 0.0
05/10:30pm 13.9 10.7 7.0 63 3.4 WSW 13 17 7 9 1022.1 - 0.0
05/10:00pm 13.5 10.2 6.6 63 3.3 WSW 13 15 7 8 1021.9 - 0.0
05/09:30pm 13.9 10.2 6.5 61 3.6 SW 15 20 8 11 1021.9 - 0.0
05/09:00pm 13.9 10.3 6.7 62 3.5 SW 15 17 8 9 1021.9 1021.7 0.0
05/08:30pm 14.3 11.0 6.6 60 3.7 SSW 13 17 7 9 1021.8 - 0.0
05/08:00pm 14.9 10.4 7.0 59 3.9 SSW 20 30 11 16 1021.6 - 0.0
05/07:30pm 15.5 10.2 6.8 56 4.3 SSW 24 33 13 18 1021.7 - 0.0
05/07:00pm 16.4 10.4 7.1 54 4.6 SSW 28 35 15 19 1021.6 - 0.0
05/06:30pm 17.1 11.1 6.9 51 5.1 SSW 28 35 15 19 1021.4 - 0.0
05/06:00pm 17.8 11.3 6.7 48 5.5 S 30 41 16 22 1021.2 1021.0 0.0
05/05:30pm 17.9 11.7 6.1 46 5.8 S 28 37 15 20 1021.0 - 0.0
05/05:00pm 18.5 12.3 6.0 44 6.2 SSW 28 41 15 22 1020.9 - 0.0
05/04:30pm 18.8 12.6 6.0 43 6.3 S 28 43 15 23 1021.0 - 0.0
05/04:00pm 18.6 12.3 5.5 42 6.4 S 28 43 15 23 1021.3 - 0.0
05/03:30pm 19.7 14.2 5.7 40 6.9 S 24 37 13 20 1021.3 - 0.0
05/03:00pm 18.8 13.0 4.6 39 6.8 S 24 35 13 19 1021.9 1021.7 0.0
05/02:30pm 19.1 13.9 5.6 41 6.6 S 22 37 12 20 1022.1 - 0.0
05/02:00pm 18.6 12.0 4.0 38 6.9 S 28 41 15 22 1022.4 - 0.0
05/01:30pm 18.6 13.8 4.4 39 6.8 S 19 32 10 17 1022.5 - 0.0
05/01:00pm 19.0 13.5 6.1 43 6.4 SSW 24 37 13 20 1022.6 - 0.0
05/12:30pm 18.3 13.4 5.2 42 6.4 S 20 37 11 20 1023.2 - 0.0
05/12:00pm 18.1 13.1 4.7 41 6.4 S 20 35 11 19 1023.6 1023.4 0.0
05/11:30am 18.0 11.2 4.9 42 6.3 S 30 43 16 23 1023.9 - 0.0
05/11:00am 16.9 10.8 4.6 44 5.8 SSW 26 39 14 21 1023.9 - 0.0
05/10:30am 17.4 11.1 4.0 41 6.3 S 26 35 14 19 1023.6 - 0.0
05/10:00am 17.3 11.2 6.5 49 5.3 S 28 39 15 21 1023.1 - 0.0
05/09:30am 16.3 9.8 4.7 46 5.5 S 28 37 15 20 1022.8 - 0.0
05/09:00am 16.0 10.9 5.9 51 4.9 S 22 28 12 15 1022.4 1022.2 0.0
05/08:30am 16.0 10.7 5.0 48 5.2 S 22 30 12 16 1022.2 - 0.0
05/08:00am 15.3 10.2 6.1 54 4.4 S 22 30 12 16 1021.5 - 0.0
05/07:30am 14.5 10.1 6.6 59 3.8 S 19 24 10 13 1021.4 - 0.0
05/07:00am 14.7 9.1 7.0 60 3.8 S 26 35 14 19 1021.3 - 0.0
05/06:30am 15.0 9.5 7.5 61 3.7 S 26 35 14 19 1020.5 - 0.0
05/06:00am 15.2 10.4 8.9 66 3.2 S 24 32 13 17 1020.1 1020.0 0.0
05/05:30am 15.6 9.2 9.3 66 3.3 S 33 43 18 23 1019.5 - 0.0
05/05:00am 16.2 11.1 7.7 57 4.3 SSW 24 32 13 17 1019.5 - 0.0
05/04:30am 15.9 10.2 6.9 55 4.4 SSW 26 35 14 19 1019.4 - 0.0
05/04:00am 16.1 10.8 8.6 61 3.8 SSW 26 35 14 19 1019.1 - 0.0
05/03:30am 16.4 10.2 7.9 57 4.3 SSW 30 43 16 23 1019.0 - 0.0
05/03:00am 16.5 11.4 9.2 62 3.8 SSW 26 33 14 18 1018.8 1018.7 0.0
05/02:30am 16.5 12.0 11.4 72 2.8 SSW 26 35 14 19 1018.8 - 0.0
05/02:00am 15.9 13.0 13.0 83 1.6 SW 20 28 11 15 1018.9 - 0.0
05/01:30am 16.4 12.5 12.0 75 2.4 SW 24 35 13 19 1019.1 - 0.0
05/01:00am 16.4 12.3 12.8 79 2.0 WSW 26 41 14 22 1018.8 - 0.0
05/12:30am 18.0 15.1 11.1 64 3.7 WSW 17 30 9 16 1018.4 - 0.0
05/12:00am 17.9 14.4 10.8 63 3.8 W 20 28 11 15 1018.3 1018.2 0.0
 
Date/Time
CDT
Temp
°C
App
Temp
°C
Dew
Point
Rel
Hum
%
Delta-T
°C
Wind Press
QNH
hPa
Press
MSL
hPa
Rain
since 9 am
mm
Dir
 
Spd
km/h
Gust
km/h
Spd
kts
Gust
kts
04/11:30pm 18.4 15.2 11.2 63 3.9 WSW 19 26 10 14 1018.2 - 0.0
04/11:00pm 18.5 15.8 11.8 65 3.7 WSW 17 24 9 13 1018.3 - 0.0
04/10:30pm 18.5 15.5 12.0 66 3.6 WSW 19 30 10 16 1018.0 - 0.0
04/10:00pm 18.9 16.7 12.2 65 3.7 WSW 15 22 8 12 1017.8 - 0.0
04/09:30pm 19.0 15.8 12.0 64 3.9 WSW 20 35 11 19 1017.5 - 0.0
04/09:00pm 19.0 15.1 12.0 64 3.9 W 24 35 13 19 1017.4 1017.3 0.0
04/08:30pm 18.9 15.4 12.2 65 3.7 W 22 32 12 17 1017.0 - 0.0
04/08:00pm 19.1 14.8 11.9 63 4.0 W 26 35 14 19 1016.6 - 0.0
04/07:30pm 19.3 14.7 11.1 59 4.5 W 26 37 14 20 1016.4 - 0.0
04/07:00pm 20.0 14.8 10.1 53 5.3 W 28 37 15 20 1016.1 - 0.0
04/06:30pm 20.5 15.3 10.3 52 5.5 W 28 39 15 21 1016.0 - 0.0
04/06:00pm 21.7 17.2 10.2 48 6.3 WSW 24 37 13 20 1016.2 1016.1 0.0
04/05:30pm 22.0 16.5 9.2 44 6.9 W 28 43 15 23 1015.9 - 0.0
04/05:23pm 21.9 16.5 9.4 45 6.7 W 28 50 15 27 1015.9 - 0.0
04/05:00pm 22.1 17.9 9.9 46 6.6 WSW 22 32 12 17 1015.9 - 0.0
04/04:30pm 21.9 17.7 9.8 46 6.6 W 22 33 12 18 1016.0 - 0.0
04/04:00pm 22.0 17.0 9.5 45 6.7 W 26 37 14 20 1016.1 - 0.0
04/03:30pm 22.5 17.5 9.6 44 7.0 WNW 26 37 14 20 1016.5 - 0.0
04/03:00pm 22.5 18.0 8.6 41 7.4 WSW 22 37 12 20 1016.8 1016.7 0.0
04/02:30pm 22.4 17.5 8.5 41 7.4 W 24 35 13 19 1017.1 - 0.0
04/02:00pm 22.7 17.8 8.4 40 7.6 W 24 32 13 17 1017.2 - 0.0
04/01:30pm 22.9 18.7 8.2 39 7.8 SW 20 28 11 15 1017.4 - 0.0
04/01:00pm 21.9 17.1 7.3 39 7.6 W 22 32 12 17 1017.7 - 0.0
04/12:30pm 21.9 18.2 8.1 41 7.2 SW 17 30 9 16 1018.1 - 0.0
04/12:00pm 21.3 17.2 8.6 44 6.7 W 20 30 11 16 1018.4 1018.3 0.0
04/11:30am 20.5 17.8 8.8 47 6.2 WSW 13 24 7 13 1018.5 - 0.0
04/11:00am 19.8 15.9 8.8 49 5.8 WSW 19 28 10 15 1018.7 - 0.0
04/10:30am 19.5 15.6 8.8 50 5.6 WSW 19 32 10 17 1018.7 - 0.0
04/10:00am 18.8 15.5 8.2 50 5.5 WSW 15 22 8 12 1018.8 - 0.0
04/09:30am 18.2 14.1 7.9 51 5.3 WSW 19 28 10 15 1018.9 - 0.0
04/09:00am 17.7 14.0 9.3 58 4.4 WSW 19 26 10 14 1018.8 1018.7 0.0
04/08:30am 16.7 13.4 9.4 62 3.8 W 17 20 9 11 1018.7 - 0.0
04/08:00am 15.5 13.3 9.4 67 3.2 W 11 15 6 8 1018.5 - 0.0
04/07:30am 13.5 11.2 9.0 74 2.3 W 11 13 6 7 1018.0 - 0.0
04/07:00am 12.4 10.7 8.5 77 1.9 WSW 7 11 4 6 1017.8 - 0.0
04/06:30am 13.1 11.1 8.6 74 2.3 WSW 9 11 5 6 1017.6 - 0.0
04/06:00am 13.5 11.2 9.0 74 2.3 WSW 11 13 6 7 1017.6 1017.5 0.0
04/05:30am 13.4 11.1 9.1 75 2.2 WSW 11 13 6 7 1017.4 - 0.0
04/05:00am 13.4 11.5 9.1 75 2.2 SW 9 11 5 6 1017.2 - 0.0
04/04:30am 13.5 11.3 9.2 75 2.2 SW 11 11 6 6 1017.4 - 0.0
04/04:00am 13.6 12.1 9.1 74 2.3 SW 7 9 4 5 1017.5 - 0.0
04/03:30am 14.5 13.1 9.7 73 2.5 SW 7 9 4 5 1017.7 - 0.0
04/03:00am 15.0 13.8 10.2 73 2.5 SW 7 9 4 5 1017.9 1017.8 0.0
04/02:30am 14.7 13.5 10.3 75 2.3 SW 7 11 4 6 1018.4 - 0.0
04/02:00am 14.4 12.7 10.0 75 2.3 SW 9 11 5 6 1018.6 - 0.0
04/01:30am 14.3 14.1 10.3 77 2.1 SW 2 7 1 4 1018.8 - 0.0
04/01:00am 14.3 12.7 10.1 76 2.2 SW 9 11 5 6 1018.9 - 0.0
04/12:30am 14.4 12.9 10.6 78 2.0 SW 9 11 5 6 1018.9 - 0.0
04/12:00am 14.1 12.5 10.3 78 2.0 WSW 9 11 5 6 1019.0 1018.9 0.0
 
Date/Time
CDT
Temp
°C
App
Temp
°C
Dew
Point
Rel
Hum
%
Delta-T
°C
Wind Press
QNH
hPa
Press
MSL
hPa
Rain
since 9 am
mm
Dir
 
Spd
km/h
Gust
km/h
Spd
kts
Gust
kts
03/11:30pm 14.2 12.3 10.4 78 2.0 WSW 11 13 6 7 1019.2 - 0.0
03/11:00pm 14.0 12.4 10.2 78 2.0 WSW 9 11 5 6 1019.1 - 0.0
03/10:30pm 14.2 12.6 10.2 77 2.1 WSW 9 9 5 5 1019.2 - 0.0
03/10:00pm 14.5 12.9 10.3 76 2.2 SW 9 9 5 5 1019.3 - 0.0
03/09:30pm 14.9 13.3 10.3 74 2.4 SW 9 11 5 6 1019.2 - 0.0
03/09:00pm 15.6 14.1 10.6 72 2.6 SW 9 13 5 7 1018.9 1018.8 0.0
03/08:30pm 16.1 13.8 10.4 69 3.0 SSW 13 17 7 9 1018.4 - 0.0
03/08:00pm 16.9 13.4 11.0 68 3.2 S 20 26 11 14 1018.2 - 0.0
03/07:30pm 17.7 14.1 10.6 63 3.8 S 20 30 11 16 1017.8 - 0.0
03/07:00pm 18.7 14.3 10.5 59 4.4 S 24 32 13 17 1017.5 - 0.0
03/06:30pm 19.5 15.0 10.2 55 5.0 S 24 32 13 17 1017.4 - 0.0
03/06:00pm 19.6 15.0 9.8 53 5.2 SSW 24 33 13 18 1017.1 1017.0 0.0
03/05:30pm 20.7 15.7 9.6 49 6.0 S 26 32 14 17 1017.1 - 0.0
03/05:00pm 20.4 15.2 8.7 47 6.2 S 26 35 14 19 1017.1 - 0.0
03/04:30pm 21.1 15.5 7.0 40 7.2 S 26 37 14 20 1016.9 - 0.0

Other Formats:

Comma delimited format used in spreadsheet applications
http://www.bom.gov.au/fwo/IDS60801/IDS60801.94814.axf

JavaScript Object Notation format (JSON) in row-major order
http://www.bom.gov.au/fwo/IDS60801/IDS60801.94814.json